Terminal Aerodrome Forecast
Issued by NWS North Platte, NE

Home | Current Version | Previous Version | Text Only | Print | Product List | Glossary Off
Versions: 1 2 3 4 5 6 7 8 9 10 11 12 13 14 15 16 17 18 19 20 21 22 23 24

000
FTUS43 KLBF 090520
TAFVTN
TAF
KVTN 090520Z 0906/1006 33010KT P6SM OVC070
     FM091300 35008KT P6SM OVC025
      TEMPO 0913/0917 -SN SCT020 OVC035
     FM100500 33005KT P6SM SCT050=

USA.gov is the U.S. government's official web portal to all federal, state and local government web resources and services.